CAE weather

Columbia Metropolitan Airport
Columbia, South Carolina, United States

Public forecast

Using degrees Fahrenheit for public forecast. Weather courtesy of forecast.io.

METAR (pilot weather report)

Retrieved 2019/05/24 09:56 UTC (24 minutes ago):

KCAE 240956Z COR 24006KT 10SM BKN050 22/17 A3013 RMK AO2 SLP199 T02220172

TAF (pilot weather forecast)

Retrieved 2019/05/24 06:33 UTC (4 hours ago):

TAF KCAE 240530Z 2406/2506 22006KT P6SM FEW250 FM241400 27007KT P6SM SCT045 FM250100 28003KT P6SM FEW250